Time;durP1;ratioP1;P1;durP2;ratioP2;P2;SDS_P1;SDS_P2;PMS_P1;PMS_P2;Temp;Humidity;BMP_temperature;BMP_pressure;BME280_temperature;BME280_humidity;BME280_pressure;Samples;Min_cycle;Max_cycle;Signal;HPM_P1;HPM_P2
2023/07/13 00:00:33;;;;;;;0.22;0.22;;;16.60;99.90;;;;;;5093294;28;19923;-72
2023/07/13 00:02:59;;;;;;;0.20;0.20;;;16.60;99.90;;;;;;5093715;28;20048;-72
2023/07/13 00:05:25;;;;;;;0.30;0.30;;;16.50;99.90;;;;;;5093188;28;20495;-72
2023/07/13 00:07:51;;;;;;;0.30;0.30;;;16.50;99.90;;;;;;5092898;28;20048;-72
2023/07/13 00:10:17;;;;;;;0.20;0.20;;;16.50;99.90;;;;;;5093254;28;20040;-72
2023/07/13 00:12:44;;;;;;;0.20;0.20;;;16.50;99.90;;;;;;5092888;28;20463;-72
2023/07/13 00:15:22;;;;;;;0.30;0.30;;;16.40;99.90;;;;;;5092053;28;20040;-72
2023/07/13 00:17:49;;;;;;;0.30;0.30;;;16.40;99.90;;;;;;5093131;28;20044;-72
2023/07/13 00:20:15;;;;;;;;;;;16.40;99.90;;;;;;5093229;28;20066;-72
2023/07/13 00:22:40;;;;;;;0.30;0.30;;;16.40;99.90;;;;;;5093274;28;19916;-72
2023/07/13 00:25:06;;;;;;;0.30;0.30;;;16.40;99.90;;;;;;5093149;28;20040;-72
2023/07/13 00:27:32;;;;;;;0.30;0.30;;;16.40;99.90;;;;;;5093025;28;20083;-72
2023/07/13 00:29:58;;;;;;;0.37;0.37;;;16.30;99.90;;;;;;5093222;28;20075;-72
2023/07/13 00:32:25;;;;;;;0.55;0.50;;;16.30;99.90;;;;;;5093011;28;20040;-72
2023/07/13 00:34:51;;;;;;;0.40;0.40;;;16.30;99.90;;;;;;5092843;28;20048;-72
2023/07/13 00:37:20;;;;;;;0.30;0.30;;;16.30;99.90;;;;;;5092980;28;20066;-72
2023/07/13 00:39:46;;;;;;;0.30;0.30;;;16.30;99.90;;;;;;5092791;28;20044;-72
2023/07/13 00:42:12;;;;;;;0.20;0.20;;;16.20;99.90;;;;;;5092834;28;20040;-72
2023/07/13 00:44:39;;;;;;;0.30;0.30;;;16.20;99.90;;;;;;5092989;28;20040;-71
2023/07/13 00:47:05;;;;;;;0.43;0.43;;;16.20;99.90;;;;;;5096568;28;20065;-72
2023/07/13 00:49:33;;;;;;;0.30;0.30;;;16.20;99.90;;;;;;5096637;28;20372;-72
2023/07/13 00:52:06;;;;;;;0.20;0.20;;;16.20;99.90;;;;;;5096646;28;20055;-72
2023/07/13 00:54:39;;;;;;;0.30;0.30;;;16.20;99.90;;;;;;5096541;28;20047;-72
2023/07/13 00:57:11;;;;;;;0.30;0.30;;;16.20;99.90;;;;;;5096675;28;20043;-71
2023/07/13 00:59:42;;;;;;;1.27;0.40;;;16.10;99.90;;;;;;5096098;28;20484;-71
2023/07/13 01:02:08;;;;;;;0.30;0.30;;;16.10;99.90;;;;;;5096610;28;20075;-71
2023/07/13 01:04:35;;;;;;;0.30;0.30;;;16.10;99.90;;;;;;5096503;28;20529;-71
2023/07/13 01:07:01;;;;;;;0.40;0.40;;;16.10;99.90;;;;;;5096187;28;20487;-72
2023/07/13 01:09:27;;;;;;;0.40;0.40;;;16.10;99.90;;;;;;5096108;28;20040;-71
2023/07/13 01:11:53;;;;;;;0.20;0.20;;;16.10;99.90;;;;;;5096304;28;20043;-71
2023/07/13 01:14:19;;;;;;;0.50;0.50;;;16.10;99.90;;;;;;5095827;28;20491;-72
2023/07/13 01:16:49;;;;;;;0.30;0.30;;;16.10;99.90;;;;;;5096023;28;20048;-71
2023/07/13 01:19:44;;;;;;;0.20;0.20;;;16.20;99.90;;;;;;5096021;28;20047;-72
2023/07/13 01:22:13;;;;;;;0.30;0.30;;;16.20;99.90;;;;;;5094406;28;20055;-72
2023/07/13 01:24:42;;;;;;;1.27;0.30;;;16.20;99.90;;;;;;5095610;28;20097;-71
2023/07/13 01:27:09;;;;;;;0.40;0.40;;;16.20;99.90;;;;;;5095949;28;20044;-72
2023/07/13 01:29:41;;;;;;;0.30;0.30;;;16.20;99.90;;;;;;5096059;28;20039;-72
2023/07/13 01:32:09;;;;;;;0.30;0.30;;;16.20;99.90;;;;;;5095719;28;20081;-72
2023/07/13 01:34:36;;;;;;;0.30;0.30;;;16.30;99.90;;;;;;5095936;28;20044;-71
2023/07/13 01:37:04;;;;;;;0.43;0.43;;;16.30;99.90;;;;;;5095352;28;20040;-71
2023/07/13 01:39:30;;;;;;;0.30;0.30;;;16.30;99.90;;;;;;5095296;28;20083;-72
2023/07/13 01:41:55;;;;;;;0.30;0.30;;;16.30;99.90;;;;;;5095883;28;20068;-71
2023/07/13 01:44:21;;;;;;;0.30;0.30;;;16.30;99.90;;;;;;5095849;28;20543;-71
2023/07/13 01:46:47;;;;;;;0.30;0.30;;;16.30;99.90;;;;;;5095636;28;20047;-71
2023/07/13 01:49:12;;;;;;;0.30;0.30;;;16.30;99.90;;;;;;5095652;28;20127;-71
2023/07/13 01:51:38;;;;;;;0.40;0.40;;;16.30;99.90;;;;;;5094266;28;20051;-72
2023/07/13 01:54:04;;;;;;;1.37;1.03;;;16.30;99.90;;;;;;5095033;28;20076;-71
2023/07/13 01:56:30;;;;;;;0.30;0.30;;;16.30;99.90;;;;;;5094755;28;20048;-72
2023/07/13 01:58:56;;;;;;;0.30;0.30;;;16.30;99.90;;;;;;5094963;28;20388;-72
2023/07/13 02:01:22;;;;;;;0.30;0.30;;;16.30;99.90;;;;;;5095364;28;20036;-72
2023/07/13 02:03:48;;;;;;;0.30;0.30;;;16.30;99.90;;;;;;5095056;28;20040;-71
2023/07/13 02:06:13;;;;;;;0.37;0.37;;;16.30;99.90;;;;;;5095077;28;20123;-71
2023/07/13 02:08:41;;;;;;;0.37;0.37;;;16.40;99.90;;;;;;5094733;28;20040;-72
2023/07/13 02:11:10;;;;;;;0.32;0.32;;;16.40;99.90;;;;;;5094811;28;20481;-71
2023/07/13 02:13:35;;;;;;;0.38;0.38;;;16.40;99.90;;;;;;5095037;28;20039;-71
2023/07/13 02:16:01;;;;;;;0.30;0.30;;;16.40;99.90;;;;;;5095051;28;20034;-72
2023/07/13 02:18:27;;;;;;;0.40;0.40;;;16.40;99.90;;;;;;5095239;28;20468;-72
2023/07/13 02:20:52;;;;;;;0.30;0.30;;;16.40;99.90;;;;;;5094722;28;20123;-72
2023/07/13 02:23:18;;;;;;;0.33;0.33;;;16.40;99.90;;;;;;5094633;28;20052;-72
2023/07/13 02:25:45;;;;;;;0.30;0.30;;;16.40;99.90;;;;;;5094960;28;20040;-71
2023/07/13 02:28:11;;;;;;;0.30;0.30;;;16.40;99.90;;;;;;5094823;28;20044;-72
2023/07/13 02:30:38;;;;;;;0.30;0.30;;;16.40;99.90;;;;;;5093380;28;20032;-71
2023/07/13 02:33:04;;;;;;;0.63;0.63;;;16.40;99.90;;;;;;5094592;28;20377;-71
2023/07/13 02:35:30;;;;;;;0.30;0.30;;;16.40;99.90;;;;;;5094414;28;20097;-72
2023/07/13 02:37:56;;;;;;;0.30;0.30;;;16.30;99.90;;;;;;5094472;28;20047;-72
2023/07/13 02:40:22;;;;;;;0.20;0.20;;;16.30;99.90;;;;;;5094565;28;20036;-71
2023/07/13 02:42:48;;;;;;;0.85;0.75;;;16.30;99.90;;;;;;5094633;28;20044;-72
2023/07/13 02:45:14;;;;;;;0.47;0.47;;;16.20;99.90;;;;;;5094613;28;20383;-72
2023/07/13 02:47:40;;;;;;;0.30;0.30;;;16.20;99.90;;;;;;5094346;28;20535;-72
2023/07/13 02:50:06;;;;;;;;;;;16.20;99.90;;;;;;5094696;28;20044;-72
2023/07/13 02:52:32;;;;;;;0.35;0.35;;;16.20;99.90;;;;;;5094245;28;20019;-72
2023/07/13 02:54:58;;;;;;;0.40;0.40;;;16.20;99.90;;;;;;5094269;28;20044;-71
2023/07/13 02:57:24;;;;;;;0.37;0.37;;;16.20;99.90;;;;;;5094268;28;20123;-72
2023/07/13 02:59:49;;;;;;;0.30;0.30;;;16.20;99.90;;;;;;5094143;28;20032;-72
2023/07/13 03:02:16;;;;;;;0.50;0.50;;;16.20;99.90;;;;;;5094178;28;20149;-71
2023/07/13 03:04:41;;;;;;;0.30;0.30;;;16.20;99.90;;;;;;5093930;28;20564;-71
2023/07/13 03:07:07;;;;;;;0.23;0.23;;;16.20;99.90;;;;;;5093761;28;20125;-71
2023/07/13 03:09:34;;;;;;;0.30;0.30;;;16.20;99.90;;;;;;5093896;28;20071;-72
2023/07/13 03:12:00;;;;;;;0.40;0.30;;;16.20;99.90;;;;;;5093812;28;20036;-72
2023/07/13 03:14:26;;;;;;;0.37;0.37;;;16.20;99.90;;;;;;5093925;28;20085;-72
2023/07/13 03:16:52;;;;;;;0.68;0.50;;;16.10;99.90;;;;;;5093872;28;20376;-72
2023/07/13 03:19:19;;;;;;;0.43;0.43;;;16.10;99.90;;;;;;5093818;28;20054;-71
2023/07/13 03:21:47;;;;;;;0.30;0.30;;;16.10;99.90;;;;;;5093576;28;20278;-72
2023/07/13 03:24:13;;;;;;;0.30;0.30;;;16.10;99.90;;;;;;5092880;28;20036;-71
2023/07/13 03:26:39;;;;;;;0.60;0.50;;;16.10;99.90;;;;;;5093957;28;20126;-72
2023/07/13 03:29:05;;;;;;;0.30;0.30;;;16.10;99.90;;;;;;5093780;28;20036;-72
2023/07/13 03:31:34;;;;;;;4.43;0.37;;;16.10;99.90;;;;;;5092557;28;20487;-71
2023/07/13 03:34:00;;;;;;;0.20;0.20;;;16.10;99.90;;;;;;5093559;28;20134;-71
2023/07/13 03:36:28;;;;;;;0.30;0.30;;;16.10;99.90;;;;;;5093685;28;20114;-71
2023/07/13 03:38:59;;;;;;;0.30;0.30;;;16.10;99.90;;;;;;5093603;28;20176;-71
2023/07/13 03:41:25;;;;;;;0.30;0.30;;;16.10;99.90;;;;;;5093521;28;20123;-71
2023/07/13 03:43:51;;;;;;;0.35;0.35;;;16.10;99.90;;;;;;5093645;28;20202;-71
2023/07/13 03:46:18;;;;;;;0.30;0.30;;;16.10;99.90;;;;;;5093610;28;20078;-72
2023/07/13 03:48:47;;;;;;;0.30;0.30;;;16.10;99.90;;;;;;5093453;28;20384;-71
2023/07/13 03:51:15;;;;;;;0.30;0.30;;;16.10;99.90;;;;;;5093066;28;20036;-71
2023/07/13 03:53:43;;;;;;;0.30;0.30;;;16.10;99.90;;;;;;5093472;28;20045;-72
2023/07/13 03:56:09;;;;;;;0.30;0.30;;;16.10;99.90;;;;;;5093470;28;20085;-71
2023/07/13 03:58:39;;;;;;;0.30;0.30;;;16.10;99.90;;;;;;5093418;28;20044;-71
2023/07/13 04:01:07;;;;;;;0.30;0.30;;;16.10;99.90;;;;;;5093487;28;20040;-72
2023/07/13 04:03:34;;;;;;;0.57;0.38;;;16.10;99.90;;;;;;5093123;28;20084;-72
2023/07/13 04:06:00;;;;;;;;;;;16.00;99.90;;;;;;5093666;28;20383;-72
2023/07/13 04:08:32;;;;;;;0.30;0.30;;;16.00;99.90;;;;;;5093241;28;20364;-71
2023/07/13 04:10:58;;;;;;;0.30;0.30;;;16.00;99.90;;;;;;5093322;28;20032;-72
2023/07/13 04:13:25;;;;;;;0.30;0.30;;;16.00;99.90;;;;;;5093407;28;20043;-72
2023/07/13 04:15:51;;;;;;;0.30;0.30;;;16.00;99.90;;;;;;5093282;28;20396;-71
2023/07/13 04:18:17;;;;;;;0.30;0.30;;;16.00;99.90;;;;;;5092558;28;20040;-72
2023/07/13 04:20:42;;;;;;;0.20;0.20;;;16.00;99.90;;;;;;5094938;28;20128;-72
2023/07/13 04:23:08;;;;;;;0.20;0.20;;;16.00;99.90;;;;;;5097006;28;20539;-71
2023/07/13 04:25:34;;;;;;;0.30;0.30;;;16.00;99.90;;;;;;5097218;28;20032;-71
2023/07/13 04:28:00;;;;;;;0.93;0.70;;;16.00;99.90;;;;;;5097179;28;20356;-72
2023/07/13 04:30:26;;;;;;;0.30;0.30;;;16.10;99.90;;;;;;5097305;28;20040;-72
2023/07/13 04:32:52;;;;;;;0.30;0.30;;;16.10;99.90;;;;;;5096519;28;20107;-74
2023/07/13 04:35:20;;;;;;;0.30;0.30;;;16.10;99.90;;;;;;5096925;28;20093;-75
2023/07/13 04:37:50;;;;;;;0.50;0.50;;;16.10;99.90;;;;;;5079463;28;20052;-73
2023/07/13 04:40:20;;;;;;;0.30;0.30;;;16.10;99.90;;;;;;5096802;28;20079;-73
2023/07/13 04:42:46;;;;;;;0.38;0.38;;;16.10;99.90;;;;;;5097366;28;20032;-76
2023/07/13 04:45:13;;;;;;;0.57;0.57;;;16.10;99.90;;;;;;5096635;28;20436;-75
2023/07/13 04:47:42;;;;;;;0.40;0.40;;;16.10;99.90;;;;;;5096226;28;20090;-71
2023/07/13 04:50:10;;;;;;;0.30;0.30;;;16.10;99.90;;;;;;5096487;28;20036;-71
2023/07/13 04:52:36;;;;;;;0.30;0.30;;;16.10;99.90;;;;;;5096898;28;20044;-71
2023/07/13 04:55:02;;;;;;;0.43;0.32;;;16.10;99.90;;;;;;5096726;28;20035;-75
2023/07/13 04:57:29;;;;;;;0.30;0.30;;;16.10;99.90;;;;;;5096674;28;20044;-70
2023/07/13 04:59:54;;;;;;;0.22;0.22;;;16.10;99.90;;;;;;5096307;28;20092;-72
2023/07/13 05:02:21;;;;;;;0.43;0.43;;;16.10;99.90;;;;;;5096213;28;20452;-70
2023/07/13 05:04:50;;;;;;;0.30;0.30;;;16.10;99.90;;;;;;5096537;28;20042;-74
2023/07/13 05:07:15;;;;;;;0.30;0.30;;;16.10;99.90;;;;;;5096378;28;20043;-74
2023/07/13 05:09:41;;;;;;;0.20;0.20;;;16.10;99.90;;;;;;5096136;28;20036;-70
2023/07/13 05:12:09;;;;;;;1.23;0.40;;;16.10;99.90;;;;;;5096206;28;20075;-71
2023/07/13 05:14:35;;;;;;;0.30;0.30;;;16.10;99.90;;;;;;5096304;28;20042;-71
2023/07/13 05:17:01;;;;;;;0.40;0.40;;;16.10;99.90;;;;;;5095997;28;20056;-71
2023/07/13 05:19:26;;;;;;;0.30;0.30;;;16.10;99.90;;;;;;5096053;28;20491;-76
2023/07/13 05:21:52;;;;;;;0.53;0.50;;;16.20;99.90;;;;;;5096090;28;20081;-74
2023/07/13 05:24:18;;;;;;;0.30;0.30;;;16.20;99.90;;;;;;5096236;28;20085;-71
2023/07/13 05:26:44;;;;;;;0.30;0.30;;;16.30;99.90;;;;;;5096108;28;20123;-74
2023/07/13 05:29:09;;;;;;;0.40;0.40;;;16.30;99.90;;;;;;5094963;28;20422;-71
2023/07/13 05:31:35;;;;;;;0.37;0.30;;;16.50;99.90;;;;;;5092914;28;20044;-73
2023/07/13 05:34:01;;;;;;;0.30;0.30;;;16.70;99.90;;;;;;5095869;28;20058;-73
2023/07/13 05:36:27;;;;;;;0.40;0.40;;;16.90;99.90;;;;;;5096041;28;20090;-73
2023/07/13 05:38:52;;;;;;;0.80;0.63;;;17.10;99.90;;;;;;5095640;28;20040;-71
2023/07/13 05:41:18;;;;;;;0.30;0.30;;;17.30;99.90;;;;;;5094344;28;20488;-72
2023/07/13 05:43:44;;;;;;;0.50;0.50;;;17.30;99.90;;;;;;5095550;28;20069;-71
2023/07/13 05:46:09;;;;;;;0.30;0.30;;;17.50;99.90;;;;;;5095278;28;20075;-72
2023/07/13 05:48:35;;;;;;;0.30;0.30;;;17.70;99.90;;;;;;5095724;28;20567;-70
2023/07/13 05:51:01;;;;;;;0.57;0.57;;;17.90;99.90;;;;;;5095611;28;20043;-70
2023/07/13 05:53:27;;;;;;;0.50;0.50;;;18.10;99.90;;;;;;5095565;28;20044;-71
2023/07/13 05:55:54;;;;;;;0.33;0.30;;;18.10;99.90;;;;;;5095696;28;20112;-72
2023/07/13 05:58:21;;;;;;;0.30;0.30;;;18.30;99.90;;;;;;5095155;28;20035;-72
2023/07/13 06:00:48;;;;;;;1.02;0.30;;;18.40;99.90;;;;;;5094995;28;20046;-72
2023/07/13 06:03:14;;;;;;;0.77;0.63;;;18.50;99.90;;;;;;5095216;28;20044;-73
2023/07/13 06:05:40;;;;;;;0.45;0.45;;;18.70;99.90;;;;;;5095209;28;20074;-71
2023/07/13 06:08:07;;;;;;;0.20;0.20;;;18.80;99.90;;;;;;5095204;28;20040;-71
2023/07/13 06:10:33;;;;;;;;;;;18.90;99.90;;;;;;5095498;28;20028;-71
2023/07/13 06:12:58;;;;;;;0.47;0.40;;;19.00;99.90;;;;;;5094803;28;20006;-73
2023/07/13 06:15:24;;;;;;;1.40;0.40;;;19.10;99.90;;;;;;5094674;28;20119;-71
2023/07/13 06:17:50;;;;;;;0.40;0.40;;;19.20;99.90;;;;;;5095150;28;20172;-72
2023/07/13 06:20:16;;;;;;;0.60;0.60;;;19.30;99.90;;;;;;5094948;28;20070;-71
2023/07/13 06:22:41;;;;;;;0.57;0.50;;;19.40;99.90;;;;;;5095206;28;20092;-70
2023/07/13 06:25:08;;;;;;;0.50;0.50;;;19.50;99.90;;;;;;5094972;28;20027;-72
2023/07/13 06:27:33;;;;;;;0.30;0.30;;;19.50;99.90;;;;;;5094708;28;20047;-70
2023/07/13 06:29:59;;;;;;;1.00;0.77;;;19.60;99.90;;;;;;5094326;28;20032;-71
2023/07/13 06:32:25;;;;;;;0.30;0.30;;;19.60;99.90;;;;;;5094605;28;20457;-71
2023/07/13 06:34:51;;;;;;;0.52;0.52;;;19.60;99.90;;;;;;5094431;28;20054;-71
2023/07/13 06:37:17;;;;;;;0.63;0.63;;;19.50;99.90;;;;;;5094747;28;20086;-71
2023/07/13 06:39:43;;;;;;;0.40;0.40;;;19.50;99.90;;;;;;5094679;28;20036;-72
2023/07/13 06:42:09;;;;;;;0.20;0.20;;;19.60;99.90;;;;;;5094472;28;20043;-71
2023/07/13 06:44:35;;;;;;;0.20;0.20;;;19.70;99.90;;;;;;5093716;28;20464;-71
2023/07/13 06:47:01;;;;;;;0.20;0.20;;;19.70;99.90;;;;;;5094497;28;20297;-70
2023/07/13 06:49:26;;;;;;;0.30;0.30;;;19.80;99.90;;;;;;5094423;28;20431;-71
2023/07/13 06:51:52;;;;;;;0.30;0.30;;;19.80;99.90;;;;;;5094379;28;20035;-72
2023/07/13 06:54:18;;;;;;;0.40;0.40;;;19.80;99.90;;;;;;5094464;28;20119;-71
2023/07/13 06:56:43;;;;;;;0.30;0.30;;;19.80;99.90;;;;;;5086385;28;20039;-71
2023/07/13 06:59:09;;;;;;;0.30;0.30;;;19.90;99.90;;;;;;5083042;28;20043;-70
2023/07/13 07:01:35;;;;;;;0.20;0.20;;;20.00;99.90;;;;;;5086026;28;20056;-72
2023/07/13 07:04:00;;;;;;;1.00;0.77;;;20.00;99.90;;;;;;5074011;28;20036;-72
2023/07/13 07:06:26;;;;;;;0.50;0.30;;;20.20;99.90;;;;;;5074015;28;20040;-75
2023/07/13 07:08:52;;;;;;;0.80;0.50;;;20.40;99.90;;;;;;5072028;28;20040;-74
2023/07/13 07:11:24;;;;;;;1.40;0.93;;;20.60;99.90;;;;;;5072117;28;20028;-75
2023/07/13 07:13:51;;;;;;;0.30;0.30;;;20.70;99.90;;;;;;5072294;28;20033;-72
2023/07/13 07:16:17;;;;;;;;;;;20.80;99.90;;;;;;5073182;28;20051;-72
2023/07/13 07:18:43;;;;;;;0.30;0.30;;;20.90;99.90;;;;;;5073004;28;19916;-73
2023/07/13 07:21:08;;;;;;;0.68;0.68;;;20.80;99.90;;;;;;5072992;28;20033;-72
2023/07/13 07:23:35;;;;;;;0.30;0.30;;;20.70;99.90;;;;;;5073505;28;20094;-75
2023/07/13 07:26:01;;;;;;;0.30;0.30;;;20.50;99.90;;;;;;5073865;28;20399;-72
2023/07/13 07:28:28;;;;;;;0.28;0.28;;;20.40;99.90;;;;;;5073781;28;20092;-73
2023/07/13 07:30:56;;;;;;;0.40;0.40;;;20.30;99.90;;;;;;5073445;28;20392;-74
2023/07/13 07:33:22;;;;;;;0.57;0.57;;;20.30;99.90;;;;;;5073750;28;20052;-71
2023/07/13 07:35:47;;;;;;;0.27;0.27;;;20.20;99.90;;;;;;5073615;28;20040;-72
2023/07/13 07:38:13;;;;;;;0.43;0.43;;;20.20;99.90;;;;;;5073831;28;20047;-74
2023/07/13 07:40:40;;;;;;;0.30;0.30;;;20.20;99.90;;;;;;5073601;28;20193;-71
2023/07/13 07:43:11;;;;;;;0.52;0.52;;;20.20;99.90;;;;;;5073562;28;20045;-72
2023/07/13 07:45:37;;;;;;;0.30;0.30;;;20.10;99.90;;;;;;5073981;28;20372;-74
2023/07/13 07:48:04;;;;;;;0.30;0.30;;;20.20;99.90;;;;;;5073589;28;20064;-73
2023/07/13 07:50:31;;;;;;;0.30;0.30;;;20.10;99.90;;;;;;5073947;28;20200;-73
2023/07/13 07:52:56;;;;;;;0.45;0.45;;;20.00;99.90;;;;;;5073241;28;20167;-74
2023/07/13 07:55:23;;;;;;;0.70;0.30;;;20.00;99.90;;;;;;5072447;28;20084;-71
2023/07/13 07:57:52;;;;;;;;;;;19.90;99.90;;;;;;5073805;28;20036;-70
2023/07/13 08:00:18;;;;;;;0.30;0.30;;;19.90;99.90;;;;;;5073317;28;20014;-72
2023/07/13 08:02:45;;;;;;;0.30;0.30;;;19.90;99.90;;;;;;5073385;28;20448;-74
2023/07/13 08:05:11;;;;;;;0.30;0.30;;;19.90;99.90;;;;;;5073364;28;20314;-71
2023/07/13 08:07:38;;;;;;;0.43;0.43;;;20.00;99.90;;;;;;5073256;28;20041;-73
2023/07/13 08:10:04;;;;;;;;;;;19.90;99.90;;;;;;5073721;28;20275;-74
2023/07/13 08:12:33;;;;;;;0.30;0.30;;;20.00;99.90;;;;;;5073229;28;20359;-70
2023/07/13 08:15:00;;;;;;;0.30;0.30;;;20.00;99.90;;;;;;5073175;28;20045;-72
2023/07/13 08:17:26;;;;;;;0.20;0.20;;;20.10;99.90;;;;;;5073455;28;20135;-75
2023/07/13 08:19:52;;;;;;;0.40;0.40;;;20.20;99.90;;;;;;5073159;28;20037;-74
2023/07/13 08:22:18;;;;;;;0.30;0.30;;;20.30;99.90;;;;;;5073245;28;20036;-72
2023/07/13 08:24:43;;;;;;;0.30;0.30;;;20.30;99.90;;;;;;5073249;28;20037;-71
2023/07/13 08:27:11;;;;;;;0.40;0.40;;;20.40;99.90;;;;;;5072803;28;20433;-73
2023/07/13 08:29:37;;;;;;;0.40;0.40;;;20.50;99.90;;;;;;5072825;28;20076;-73
2023/07/13 08:32:04;;;;;;;2.40;0.95;;;20.50;99.90;;;;;;5073386;28;20165;-72
2023/07/13 08:34:30;;;;;;;0.20;0.20;;;20.60;99.90;;;;;;5073083;28;20051;-72
2023/07/13 08:36:56;;;;;;;0.30;0.30;;;20.70;99.90;;;;;;5072708;28;20044;-74
2023/07/13 08:39:21;;;;;;;0.40;0.40;;;20.80;99.90;;;;;;5073039;28;20040;-73
2023/07/13 08:41:53;;;;;;;0.30;0.30;;;21.00;99.90;;;;;;5072881;28;20456;-72
2023/07/13 08:44:39;;;;;;;0.70;0.70;;;21.20;99.90;;;;;;5072907;28;20544;-72
2023/07/13 08:47:06;;;;;;;0.30;0.30;;;21.40;99.90;;;;;;5073117;28;20055;-71
2023/07/13 08:49:34;;;;;;;0.30;0.30;;;21.60;99.90;;;;;;5073182;28;20040;-73
2023/07/13 08:52:28;;;;;;;1.10;1.05;;;21.80;99.90;;;;;;5071944;28;20044;-72
2023/07/13 08:54:56;;;;;;;0.75;0.63;;;21.90;99.90;;;;;;5072718;28;20472;-73
2023/07/13 08:57:30;;;;;;;0.40;0.40;;;22.10;99.90;;;;;;5073117;28;20048;-73
2023/07/13 08:59:56;;;;;;;0.20;0.20;;;22.10;99.90;;;;;;5072834;28;20048;-72
2023/07/13 09:02:45;;;;;;;0.97;0.40;;;22.10;99.90;;;;;;5072822;28;20036;-73
2023/07/13 09:05:16;;;;;;;0.38;0.38;;;22.20;99.90;;;;;;5073003;28;20045;-71
2023/07/13 09:08:09;;;;;;;0.25;0.25;;;22.40;99.90;;;;;;5075975;28;20051;-73
2023/07/13 09:10:45;;;;;;;0.30;0.30;;;22.30;99.90;;;;;;5076461;28;20123;-71
2023/07/13 09:13:43;;;;;;;0.30;0.30;;;22.20;99.90;;;;;;5076277;28;20040;-73
2023/07/13 09:16:11;;;;;;;2.25;0.55;;;22.10;99.90;;;;;;5075725;28;20048;-71
2023/07/13 09:18:44;;;;;;;0.30;0.30;;;21.80;99.90;;;;;;5076226;28;20056;-73
2023/07/13 09:21:17;;;;;;;0.20;0.20;;;21.60;99.90;;;;;;5076255;28;20045;-74
2023/07/13 09:23:43;;;;;;;0.75;0.75;;;21.40;99.90;;;;;;5076782;28;20046;-71
2023/07/13 09:26:21;;;;;;;0.40;0.40;;;21.10;99.90;;;;;;5076525;28;20040;-72
2023/07/13 09:29:04;;;;;;;0.30;0.30;;;20.60;99.90;;;;;;5076221;28;20178;-75
2023/07/13 09:31:44;;;;;;;0.50;0.50;;;20.10;99.90;;;;;;5076213;28;20491;-72
2023/07/13 09:34:12;;;;;;;0.70;0.40;;;19.60;99.90;;;;;;5076023;28;20048;-72
2023/07/13 09:36:38;;;;;;;0.20;0.20;;;19.10;99.90;;;;;;5076017;28;20040;-72
2023/07/13 09:39:28;;;;;;;0.30;0.30;;;18.80;99.90;;;;;;5075996;28;20472;-74
2023/07/13 09:42:03;;;;;;;0.20;0.20;;;18.50;99.90;;;;;;5075857;28;20373;-74
2023/07/13 09:44:34;;;;;;;0.20;0.20;;;18.20;99.90;;;;;;5075969;28;20039;-72
2023/07/13 09:47:00;;;;;;;0.32;0.32;;;17.80;99.90;;;;;;5075833;28;20032;-73
2023/07/13 09:49:34;;;;;;;0.38;0.30;;;17.40;99.90;;;;;;5075856;28;20041;-73
2023/07/13 09:52:03;;;;;;;0.30;0.30;;;17.20;99.90;;;;;;5075828;28;20412;-74
2023/07/13 09:54:29;;;;;;;0.22;0.22;;;17.00;99.90;;;;;;5075669;28;20076;-73
2023/07/13 09:56:59;;;;;;;0.30;0.30;;;16.90;99.90;;;;;;5075415;28;20441;-74
2023/07/13 09:59:49;;;;;;;0.30;0.30;;;17.00;99.90;;;;;;5076152;28;20037;-74
2023/07/13 10:02:33;;;;;;;0.30;0.30;;;17.00;99.90;;;;;;5074904;28;20102;-71
2023/07/13 10:05:15;;;;;;;0.20;0.20;;;17.00;99.90;;;;;;5075568;28;20067;-73
2023/07/13 10:07:44;;;;;;;0.22;0.22;;;17.10;99.90;;;;;;5074499;28;20123;-73
2023/07/13 10:10:19;;;;;;;0.30;0.30;;;17.20;99.90;;;;;;5075989;28;20044;-73
2023/07/13 10:12:46;;;;;;;0.28;0.28;;;17.30;99.90;;;;;;5075776;28;20089;-72
2023/07/13 10:15:23;;;;;;;0.30;0.30;;;17.50;99.90;;;;;;5075359;28;20036;-72
2023/07/13 10:17:51;;;;;;;0.30;0.30;;;17.60;99.90;;;;;;5074688;28;20368;-74
2023/07/13 10:20:17;;;;;;;0.30;0.30;;;17.70;99.90;;;;;;5075553;28;20040;-74
2023/07/13 10:23:02;;;;;;;0.20;0.20;;;17.80;99.90;;;;;;5075151;28;20098;-73
2023/07/13 10:25:32;;;;;;;0.30;0.30;;;18.00;99.90;;;;;;5075388;28;20047;-72
2023/07/13 10:28:09;;;;;;;0.30;0.30;;;18.20;99.90;;;;;;5075005;28;20044;-73
2023/07/13 10:30:40;;;;;;;0.30;0.30;;;18.20;99.90;;;;;;5074887;28;20557;-73
2023/07/13 10:33:12;;;;;;;0.30;0.30;;;18.40;99.90;;;;;;5075328;28;20048;-73
2023/07/13 10:35:40;;;;;;;0.20;0.20;;;18.50;99.90;;;;;;5074945;28;20036;-74
2023/07/13 10:38:12;;;;;;;0.30;0.30;;;18.70;99.90;;;;;;5074798;28;20048;-73
2023/07/13 10:40:45;;;;;;;0.20;0.20;;;18.90;99.90;;;;;;5073369;28;20035;-74
2023/07/13 10:43:21;;;;;;;0.20;0.20;;;19.00;99.90;;;;;;5075020;28;20166;-73
2023/07/13 10:45:49;;;;;;;0.30;0.30;;;19.00;99.90;;;;;;5075074;28;20557;-72
2023/07/13 10:48:17;;;;;;;0.30;0.30;;;19.10;99.90;;;;;;5074567;28;20051;-73
2023/07/13 10:50:46;;;;;;;0.22;0.22;;;19.30;99.90;;;;;;5074604;28;20115;-73
2023/07/13 10:53:29;;;;;;;0.20;0.20;;;19.40;99.90;;;;;;5074514;28;20040;-74
2023/07/13 10:55:59;;;;;;;0.52;0.50;;;19.70;99.90;;;;;;5074789;28;20055;-74
2023/07/13 10:58:43;;;;;;;0.50;0.50;;;19.80;99.90;;;;;;5074507;28;20047;-75
2023/07/13 11:01:17;;;;;;;0.30;0.30;;;20.00;99.90;;;;;;5074576;28;20032;-74
2023/07/13 11:03:43;;;;;;;0.40;0.40;;;20.10;99.90;;;;;;5074115;28;20047;-75
2023/07/13 11:06:33;;;;;;;0.30;0.30;;;20.20;99.90;;;;;;5074285;28;20519;-74
2023/07/13 11:09:24;;;;;;;0.25;0.25;;;20.20;99.90;;;;;;5074610;28;20048;-74
2023/07/13 11:11:49;;;;;;;0.30;0.30;;;20.30;99.90;;;;;;5063122;28;20464;-73
2023/07/13 11:14:41;;;;;;;0.30;0.30;;;20.30;99.90;;;;;;5073843;28;20055;-73
2023/07/13 11:17:29;;;;;;;0.30;0.30;;;20.30;99.90;;;;;;5074430;28;20052;-73
2023/07/13 11:20:18;;;;;;;0.40;0.40;;;20.40;99.90;;;;;;5073930;28;20071;-74
2023/07/13 11:23:06;;;;;;;1.77;0.40;;;20.50;99.90;;;;;;5073916;28;20036;-74
2023/07/13 11:25:34;;;;;;;0.57;0.30;;;20.50;99.90;;;;;;5074054;28;20071;-73
2023/07/13 11:28:06;;;;;;;0.30;0.30;;;20.50;99.90;;;;;;5074205;28;20059;-75
2023/07/13 11:31:00;;;;;;;0.40;0.40;;;20.40;99.90;;;;;;5072617;28;20033;-74
2023/07/13 11:33:38;;;;;;;0.45;0.40;;;19.90;99.90;;;;;;5073862;28;20040;-75
2023/07/13 11:36:05;;;;;;;0.40;0.40;;;19.40;99.90;;;;;;5074083;28;20097;-73
2023/07/13 11:38:30;;;;;;;;;;;19.10;99.90;;;;;;5074609;28;20132;-74
2023/07/13 11:41:02;;;;;;;0.22;0.22;;;18.80;99.90;;;;;;5073695;28;19964;-74
2023/07/13 11:43:28;;;;;;;0.30;0.30;;;18.70;99.90;;;;;;5073762;28;20036;-72
2023/07/13 11:45:54;;;;;;;0.40;0.40;;;18.60;99.90;;;;;;5073709;28;20040;-74
2023/07/13 11:48:28;;;;;;;0.20;0.20;;;18.60;99.90;;;;;;5073746;28;20032;-74
2023/07/13 11:50:58;;;;;;;0.30;0.30;;;18.70;99.90;;;;;;5073840;28;20267;-73
2023/07/13 11:53:27;;;;;;;0.30;0.30;;;18.90;99.90;;;;;;5073762;28;20047;-76
2023/07/13 11:55:53;;;;;;;0.38;0.38;;;19.20;99.90;;;;;;5073666;28;20040;-76
2023/07/13 11:58:24;;;;;;;0.30;0.30;;;19.60;99.90;;;;;;5072372;28;20040;-75
2023/07/13 12:00:51;;;;;;;0.20;0.20;;;20.00;99.90;;;;;;5073611;28;20126;-73
2023/07/13 12:03:24;;;;;;;0.40;0.40;;;20.20;99.90;;;;;;5073528;28;20046;-74
2023/07/13 12:06:27;;;;;;;0.60;0.60;;;20.30;99.90;;;;;;5073315;28;20040;-75
2023/07/13 12:09:00;;;;;;;0.30;0.30;;;20.50;99.90;;;;;;5074032;28;20536;-74
2023/07/13 12:11:27;;;;;;;0.30;0.30;;;20.80;99.90;;;;;;5073900;28;20041;-74
2023/07/13 12:13:52;;;;;;;;;;;21.00;99.90;;;;;;5073906;28;20036;-73
2023/07/13 12:16:29;;;;;;;0.30;0.30;;;21.30;99.90;;;;;;5073197;28;20260;-75
2023/07/13 12:18:57;;;;;;;0.30;0.30;;;21.50;99.90;;;;;;5073625;28;20044;-74
2023/07/13 12:21:34;;;;;;;0.30;0.30;;;21.70;99.90;;;;;;5073280;28;20445;-73
2023/07/13 12:24:03;;;;;;;0.35;0.30;;;21.90;99.90;;;;;;5073766;28;20048;-74
2023/07/13 12:26:31;;;;;;;0.40;0.40;;;22.00;99.90;;;;;;5073345;28;20037;-75
2023/07/13 12:29:00;;;;;;;1.00;0.45;;;22.20;99.90;;;;;;5055622;28;20131;-74
2023/07/13 12:31:30;;;;;;;0.70;0.70;;;22.30;99.90;;;;;;5073659;28;20460;-73
2023/07/13 12:34:21;;;;;;;0.20;0.20;;;22.40;99.90;;;;;;5073157;28;20052;-74
2023/07/13 12:37:00;;;;;;;0.30;0.30;;;22.50;99.90;;;;;;5073281;28;20041;-73
2023/07/13 12:39:45;;;;;;;0.30;0.30;;;22.60;99.90;;;;;;5073344;28;20055;-76
2023/07/13 12:42:27;;;;;;;0.32;0.32;;;22.50;99.90;;;;;;5075678;28;20036;-73
2023/07/13 12:45:18;;;;;;;0.65;0.63;;;22.50;99.90;;;;;;5077061;28;20435;-74
2023/07/13 12:47:49;;;;;;;0.20;0.20;;;22.20;99.90;;;;;;5077222;28;20101;-75
2023/07/13 12:50:20;;;;;;;0.20;0.20;;;21.90;99.90;;;;;;5077099;28;20470;-74
2023/07/13 12:52:56;;;;;;;0.45;0.45;;;21.60;99.90;;;;;;5076584;28;20522;-73
2023/07/13 12:55:22;;;;;;;0.35;0.35;;;21.40;99.90;;;;;;5077236;28;20041;-76
2023/07/13 12:57:57;;;;;;;0.70;0.63;;;21.30;99.90;;;;;;5076835;28;20375;-73